Corky — WDC3366 — position and weather

sailwx.info

Track history (hours):
 
Tides and Currents Weather Stations Pressure Air Temp Water Temp Dewpoint Dewpoint Depression Visibility Wind Speed Wind Dir Waves Ship Positions

Corky

Owner: Gulf South Marine Transportation, Inc., New Orleans, LA. More information available from US FCC via Universal Licensing System and Coast Guard Vessel Documentation Center.

Last reported at 2017-Nov-17 04:06 UTC. Time now 2017-Nov-18 09:00 UTC.
Position N 29°56' W 091°50'.

Length 18 m; draft 3.3 m.

Type: Tow > 200 m length. MMSI: 367006780.

Date/timePositionNaut miles runAvg speedWind from/ knotsBaromVisibWave heightAir tempDewpointWater temp
2017-Nov-17 04:06N 29°56' W 091°50'0 0.0
2017-Nov-17 03:38N 29°56' W 091°50'0 0.0
2017-Nov-17 03:27N 29°56' W 091°50'0 0.0
2017-Nov-17 02:20N 29°56' W 091°50'0 0.2
2017-Nov-17 01:54N 29°56' W 091°50'1 2.6
2017-Nov-17 01:29N 29°55' W 091°50'51 2.5
2017-Nov-16 05:22N 29°34' W 090°57'2 5.9
2017-Nov-16 05:00N 29°33' W 090°55'3 5.6
2017-Nov-16 04:29N 29°32' W 090°51'3 5.7
2017-Nov-16 04:00N 29°32' W 090°48'3 5.1
2017-Nov-16 03:30N 29°33' W 090°45'2 3.5
2017-Nov-16 03:00N 29°34' W 090°44'2 3.6
2017-Nov-16 02:30N 29°35' W 090°43'2 3.3
2017-Nov-16 02:00N 29°37' W 090°42'0 0.1
2017-Nov-16 01:30N 29°37' W 090°42'2 3.4
2017-Nov-16 01:00N 29°36' W 090°40'2 3.5
2017-Nov-16 00:30N 29°35' W 090°38'2 4.9
2017-Nov-16 00:00N 29°35' W 090°35'  
2017-Nov-12 19:22N 29°51' W 091°55'2 3.7
2017-Nov-12 18:41N 29°50' W 091°57'1 3.7
2017-Nov-12 18:27N 29°50' W 091°58'2 3.4
2017-Nov-12 17:57N 29°50' W 092°00'2 3.8
2017-Nov-12 17:28N 29°49' W 092°02'2 3.6
2017-Nov-12 16:59N 29°48' W 092°04'2 3.6
2017-Nov-12 16:30N 29°48' W 092°06'2 3.7
2017-Nov-12 16:00N 29°47' W 092°08'2 3.7
2017-Nov-12 15:30N 29°47' W 092°10'0 0.9
2017-Nov-12 15:00N 29°47' W 092°11'0 0.0
2017-Nov-12 14:28N 29°47' W 092°11'0 0.1
2017-Nov-12 13:56N 29°47' W 092°11'0 0.5
2017-Nov-12 13:28N 29°47' W 092°10'0 0.4
2017-Nov-12 13:00N 29°47' W 092°10'0 0.3
2017-Nov-12 12:30N 29°47' W 092°11'0 0.1
2017-Nov-12 11:54N 29°47' W 092°11'0 0.2
2017-Nov-12 10:43N 29°47' W 092°10'0 0.3
2017-Nov-12 10:29N 29°47' W 092°10'2 4.5
2017-Nov-12 09:59N 29°47' W 092°08'3 5.5
2017-Nov-12 09:29N 29°48' W 092°05'3 5.5
2017-Nov-12 08:57N 29°49' W 092°02'58 2.6
2017-Nov-11 11:01N 29°35' W 090°57'0 5.6
2017-Nov-11 10:57N 29°34' W 090°57'1 2.6
2017-Nov-11 10:30N 29°34' W 090°56'3 5.2
2017-Nov-11 09:57N 29°32' W 090°53'3 5.7
2017-Nov-11 09:30N 29°32' W 090°50'3 6.2
2017-Nov-11 09:00N 29°32' W 090°46'3 5.1
2017-Nov-11 08:30N 29°34' W 090°44'2 4.2
2017-Nov-11 08:00N 29°35' W 090°43'2 3.2
2017-Nov-11 07:30N 29°37' W 090°41'0 0.5
2017-Nov-11 07:00N 29°36' W 090°41'0 0.0
2017-Nov-11 06:30N 29°36' W 090°41'0 0.1
2017-Nov-11 06:00N 29°36' W 090°41'2 4.7
2017-Nov-11 05:30N 29°35' W 090°39'3 5.5
2017-Nov-11 05:00N 29°35' W 090°36'3 5.7
2017-Nov-11 04:29N 29°34' W 090°32'  
Track history (hours):
 
Tides and Currents Weather Stations Pressure Air Temp Water Temp Dewpoint Dewpoint Depression Visibility Wind Speed Wind Dir Waves Ship Positions

Corky

Owner: Gulf South Marine Transportation, Inc., New Orleans, LA. More information available from US FCC via Universal Licensing System and Coast Guard Vessel Documentation Center.

Last reported at 2017-Nov-17 04:06 UTC. Time now 2017-Nov-18 09:00 UTC.
Position N 29°56' W 091°50'.

Length 18 m; draft 3.3 m.

Type: Tow > 200 m length. MMSI: 367006780.

Date/timePositionNaut miles runAvg speedWind from/ knotsBaromVisibWave heightAir tempDewpointWater temp
2017-Nov-17 04:06N 29°56' W 091°50'0 0.0
2017-Nov-17 03:38N 29°56' W 091°50'0 0.0
2017-Nov-17 03:27N 29°56' W 091°50'0 0.0
2017-Nov-17 02:20N 29°56' W 091°50'0 0.2
2017-Nov-17 01:54N 29°56' W 091°50'1 2.6
2017-Nov-17 01:29N 29°55' W 091°50'51 2.5
2017-Nov-16 05:22N 29°34' W 090°57'2 5.9
2017-Nov-16 05:00N 29°33' W 090°55'3 5.6
2017-Nov-16 04:29N 29°32' W 090°51'3 5.7
2017-Nov-16 04:00N 29°32' W 090°48'3 5.1
2017-Nov-16 03:30N 29°33' W 090°45'2 3.5
2017-Nov-16 03:00N 29°34' W 090°44'2 3.6
2017-Nov-16 02:30N 29°35' W 090°43'2 3.3
2017-Nov-16 02:00N 29°37' W 090°42'0 0.1
2017-Nov-16 01:30N 29°37' W 090°42'2 3.4
2017-Nov-16 01:00N 29°36' W 090°40'2 3.5
2017-Nov-16 00:30N 29°35' W 090°38'2 4.9
2017-Nov-16 00:00N 29°35' W 090°35'  
2017-Nov-12 19:22N 29°51' W 091°55'2 3.7
2017-Nov-12 18:41N 29°50' W 091°57'1 3.7
2017-Nov-12 18:27N 29°50' W 091°58'2 3.4
2017-Nov-12 17:57N 29°50' W 092°00'2 3.8
2017-Nov-12 17:28N 29°49' W 092°02'2 3.6
2017-Nov-12 16:59N 29°48' W 092°04'2 3.6
2017-Nov-12 16:30N 29°48' W 092°06'2 3.7
2017-Nov-12 16:00N 29°47' W 092°08'2 3.7
2017-Nov-12 15:30N 29°47' W 092°10'0 0.9
2017-Nov-12 15:00N 29°47' W 092°11'0 0.0
2017-Nov-12 14:28N 29°47' W 092°11'0 0.1
2017-Nov-12 13:56N 29°47' W 092°11'0 0.5
2017-Nov-12 13:28N 29°47' W 092°10'0 0.4
2017-Nov-12 13:00N 29°47' W 092°10'0 0.3
2017-Nov-12 12:30N 29°47' W 092°11'0 0.1
2017-Nov-12 11:54N 29°47' W 092°11'0 0.2
2017-Nov-12 10:43N 29°47' W 092°10'0 0.3
2017-Nov-12 10:29N 29°47' W 092°10'2 4.5
2017-Nov-12 09:59N 29°47' W 092°08'3 5.5
2017-Nov-12 09:29N 29°48' W 092°05'3 5.5
2017-Nov-12 08:57N 29°49' W 092°02'58 2.6
2017-Nov-11 11:01N 29°35' W 090°57'0 5.6
2017-Nov-11 10:57N 29°34' W 090°57'1 2.6
2017-Nov-11 10:30N 29°34' W 090°56'3 5.2
2017-Nov-11 09:57N 29°32' W 090°53'3 5.7
2017-Nov-11 09:30N 29°32' W 090°50'3 6.2
2017-Nov-11 09:00N 29°32' W 090°46'3 5.1
2017-Nov-11 08:30N 29°34' W 090°44'2 4.2
2017-Nov-11 08:00N 29°35' W 090°43'2 3.2
2017-Nov-11 07:30N 29°37' W 090°41'0 0.5
2017-Nov-11 07:00N 29°36' W 090°41'0 0.0
2017-Nov-11 06:30N 29°36' W 090°41'0 0.1
2017-Nov-11 06:00N 29°36' W 090°41'2 4.7
2017-Nov-11 05:30N 29°35' W 090°39'3 5.5
2017-Nov-11 05:00N 29°35' W 090°36'3 5.7
2017-Nov-11 04:29N 29°34' W 090°32'  

Dump ship's entire track history